createdAt,value
2023-03-06T00:01:10.619Z,19.90
2023-03-06T00:03:40.641Z,15.30
2023-03-06T00:06:09.260Z,16.27
2023-03-06T00:08:37.432Z,17.43
2023-03-06T00:11:06.295Z,13.47
2023-03-06T00:13:35.267Z,16.63
2023-03-06T00:16:03.628Z,14.10
2023-03-06T00:18:32.468Z,16.57
2023-03-06T00:21:02.246Z,12.27
2023-03-06T00:23:30.341Z,16.80
2023-03-06T00:25:59.246Z,21.27
2023-03-06T00:28:27.387Z,15.33
2023-03-06T00:30:55.619Z,15.27
2023-03-06T00:33:24.287Z,13.53
2023-03-06T00:35:52.592Z,15.87
2023-03-06T00:38:22.780Z,9.97
2023-03-06T00:40:51.494Z,12.20
2023-03-06T00:43:20.083Z,14.30
2023-03-06T00:45:48.873Z,13.70
2023-03-06T00:48:17.875Z,12.20
2023-03-06T00:50:46.730Z,13.23
2023-03-06T00:53:14.881Z,14.53
2023-03-06T00:55:47.988Z,18.30
2023-03-06T00:58:16.344Z,13.53
2023-03-06T01:00:44.920Z,10.23
2023-03-06T01:03:13.757Z,11.13
2023-03-06T01:05:42.101Z,16.23
2023-03-06T01:08:10.392Z,8.40
2023-03-06T01:10:42.228Z,10.87
2023-03-06T01:13:12.130Z,12.70
2023-03-06T01:15:40.373Z,10.53
2023-03-06T01:18:09.390Z,11.43
2023-03-06T01:20:37.712Z,12.70
2023-03-06T01:23:06.561Z,13.20
2023-03-06T01:25:35.035Z,15.30
2023-03-06T01:28:03.745Z,7.70
2023-03-06T01:30:33.278Z,9.60
2023-03-06T01:33:01.417Z,14.40
2023-03-06T01:35:30.239Z,11.20
2023-03-06T01:37:58.307Z,13.63
2023-03-06T01:40:27.096Z,12.80
2023-03-06T01:42:56.489Z,11.30
2023-03-06T01:46:02.287Z,11.43
2023-03-06T01:48:33.071Z,8.97
2023-03-06T01:51:01.397Z,7.87
2023-03-06T01:53:29.887Z,10.27
2023-03-06T01:55:59.458Z,6.83
2023-03-06T01:58:27.896Z,8.37
2023-03-06T02:00:56.356Z,11.27
2023-03-06T02:03:28.184Z,9.63
2023-03-06T02:05:59.898Z,8.33
2023-03-06T02:08:28.965Z,9.50
2023-03-06T02:11:07.076Z,9.43
2023-03-06T02:13:36.276Z,9.53
2023-03-06T02:16:04.884Z,12.87
2023-03-06T02:18:34.955Z,13.20
2023-03-06T02:21:08.593Z,17.73
2023-03-06T02:23:46.971Z,11.20
2023-03-06T02:26:17.617Z,11.37
2023-03-06T02:28:45.815Z,12.50
2023-03-06T02:31:23.395Z,14.13
2023-03-06T02:34:09.939Z,9.80
2023-03-06T02:36:43.403Z,15.93
2023-03-06T02:39:12.264Z,7.67
2023-03-06T02:41:42.243Z,12.03
2023-03-06T02:44:11.302Z,6.80
2023-03-06T02:46:39.783Z,11.57
2023-03-06T02:49:08.750Z,9.90
2023-03-06T02:51:37.152Z,11.07
2023-03-06T02:54:05.751Z,12.63
2023-03-06T02:56:34.598Z,11.80
2023-03-06T02:59:04.152Z,11.53
2023-03-06T03:01:32.633Z,13.10
2023-03-06T03:04:01.491Z,11.43
2023-03-06T03:06:29.796Z,9.27
2023-03-06T03:08:57.820Z,11.80
2023-03-06T03:11:26.706Z,7.30
2023-03-06T03:13:54.954Z,17.50
2023-03-06T03:16:24.507Z,8.17
2023-03-06T03:18:53.311Z,7.50
2023-03-06T03:21:21.794Z,12.93
2023-03-06T03:23:50.153Z,8.80
2023-03-06T03:26:22.104Z,15.10
2023-03-06T03:28:50.440Z,13.23
2023-03-06T03:31:19.413Z,10.80
2023-03-06T03:33:48.925Z,16.67
2023-03-06T03:36:17.075Z,13.83
2023-03-06T03:38:45.748Z,9.83
2023-03-06T03:41:28.860Z,9.33
2023-03-06T03:43:57.447Z,10.87
2023-03-06T03:46:25.972Z,11.87
2023-03-06T03:48:55.961Z,12.27
2023-03-06T03:51:24.366Z,16.63
2023-03-06T03:53:52.517Z,18.90
2023-03-06T03:56:20.821Z,16.10
2023-03-06T03:58:49.958Z,10.73
2023-03-06T04:01:18.094Z,16.70
2023-03-06T04:03:46.112Z,10.03
2023-03-06T04:06:16.441Z,12.80
2023-03-06T04:08:44.949Z,11.17
2023-03-06T04:11:13.226Z,13.90
2023-03-06T04:13:41.675Z,13.00
2023-03-06T04:16:10.136Z,14.70
2023-03-06T04:18:38.121Z,17.10
2023-03-06T04:21:07.009Z,13.53
2023-03-06T04:23:37.174Z,13.13
2023-03-06T04:26:05.617Z,14.50
2023-03-06T04:28:35.330Z,17.30
2023-03-06T04:31:03.422Z,12.63
2023-03-06T04:33:31.474Z,17.50
2023-03-06T04:36:00.896Z,15.83
2023-03-06T04:38:29.461Z,15.00
2023-03-06T04:40:58.797Z,13.47
2023-03-06T04:43:27.508Z,16.33
2023-03-06T04:45:56.185Z,16.67
2023-03-06T04:48:25.369Z,14.50
2023-03-06T04:50:54.344Z,12.40
2023-03-06T04:53:22.633Z,19.60
2023-03-06T04:55:51.014Z,18.03
2023-03-06T04:58:21.508Z,15.17
2023-03-06T05:00:50.064Z,16.30
2023-03-06T05:03:18.992Z,23.60
2023-03-06T05:05:48.115Z,20.70
2023-03-06T05:08:17.852Z,16.83
2023-03-06T05:10:47.112Z,14.20
2023-03-06T05:13:15.391Z,14.50
2023-03-06T05:15:45.173Z,19.70
2023-03-06T05:18:13.853Z,19.03
2023-03-06T05:20:42.561Z,19.20
2023-03-06T05:23:11.877Z,18.47
2023-03-06T05:25:41.996Z,18.60
2023-03-06T05:28:10.561Z,13.57
2023-03-06T05:30:39.666Z,17.17
2023-03-06T05:33:09.684Z,21.13
2023-03-06T05:35:38.071Z,19.93
2023-03-06T05:38:06.734Z,16.70
2023-03-06T05:40:34.876Z,19.00
2023-03-06T05:43:03.097Z,23.47
2023-03-06T05:45:32.293Z,16.40
2023-03-06T05:48:00.925Z,18.80
2023-03-06T05:50:30.751Z,24.20
2023-03-06T05:52:59.332Z,35.07
2023-03-06T05:55:28.329Z,21.07
2023-03-06T05:57:56.869Z,32.57
2023-03-06T06:00:26.217Z,23.93
2023-03-06T06:02:54.451Z,20.63
2023-03-06T06:05:22.907Z,26.30
2023-03-06T06:07:53.259Z,28.00
2023-03-06T06:10:21.676Z,22.67
2023-03-06T06:12:50.143Z,22.60
2023-03-06T06:15:19.292Z,26.10
2023-03-06T06:17:47.661Z,22.47
2023-03-06T06:20:17.308Z,23.47
2023-03-06T06:22:46.010Z,23.93
2023-03-06T06:25:17.109Z,27.67
2023-03-06T06:27:46.122Z,24.60
2023-03-06T06:30:15.426Z,23.47
2023-03-06T06:32:44.364Z,23.73
2023-03-06T06:35:14.026Z,27.70
2023-03-06T06:37:42.803Z,28.40
2023-03-06T06:40:12.925Z,30.10
2023-03-06T06:42:44.014Z,34.17
2023-03-06T06:45:13.368Z,31.10
2023-03-06T06:47:42.767Z,30.43
2023-03-06T06:50:14.972Z,24.93
2023-03-06T06:52:43.816Z,30.30
2023-03-06T06:55:13.979Z,24.93
2023-03-06T06:57:45.112Z,28.83
2023-03-06T07:00:16.116Z,21.83
2023-03-06T07:02:45.323Z,27.77
2023-03-06T07:05:14.112Z,27.67
2023-03-06T07:07:43.034Z,25.70
2023-03-06T07:10:16.335Z,23.80
2023-03-06T07:12:46.828Z,30.77
2023-03-06T07:15:20.266Z,29.83
2023-03-06T07:17:50.279Z,24.37
2023-03-06T07:20:20.907Z,25.27
2023-03-06T07:22:51.854Z,25.83
2023-03-06T07:25:23.089Z,33.73
2023-03-06T07:27:55.428Z,29.17
2023-03-06T07:30:26.232Z,20.63
2023-03-06T07:32:55.969Z,24.60
2023-03-06T07:35:24.961Z,23.17
2023-03-06T07:37:54.711Z,28.53
2023-03-06T07:40:23.686Z,25.13
2023-03-06T07:43:13.029Z,28.80
2023-03-06T07:45:47.166Z,29.90
2023-03-06T07:48:18.308Z,29.60
2023-03-06T07:50:47.610Z,43.67
2023-03-06T07:53:16.600Z,24.60
2023-03-06T07:55:45.985Z,31.50
2023-03-06T07:58:16.448Z,24.77
2023-03-06T08:00:45.273Z,24.07
2023-03-06T08:03:14.952Z,28.33
2023-03-06T08:05:44.419Z,26.53
2023-03-06T08:08:13.876Z,24.00
2023-03-06T08:10:43.165Z,28.13
2023-03-06T08:13:12.624Z,31.80
2023-03-06T08:15:43.401Z,29.43
2023-03-06T08:18:12.791Z,26.03
2023-03-06T08:20:42.090Z,27.97
2023-03-06T08:23:12.632Z,23.20
2023-03-06T08:25:41.306Z,25.80
2023-03-06T08:28:10.002Z,28.10
2023-03-06T08:30:39.758Z,28.40
2023-03-06T08:33:09.659Z,31.53
2023-03-06T08:35:38.686Z,30.20
2023-03-06T08:38:08.292Z,28.37
2023-03-06T08:40:36.838Z,26.77
2023-03-06T08:43:05.224Z,24.23
2023-03-06T08:45:34.790Z,33.43
2023-03-06T08:48:03.702Z,26.53
2023-03-06T08:50:34.995Z,23.20
2023-03-06T08:53:04.346Z,30.97
2023-03-06T08:55:33.151Z,28.37
2023-03-06T08:58:02.251Z,28.80
2023-03-06T09:00:31.211Z,24.37
2023-03-06T09:03:00.158Z,24.83
2023-03-06T09:05:29.371Z,22.33
2023-03-06T09:08:00.452Z,23.77
2023-03-06T09:10:31.304Z,21.60
2023-03-06T09:13:00.284Z,23.17
2023-03-06T09:15:28.545Z,24.93
2023-03-06T09:17:57.619Z,23.47
2023-03-06T09:20:26.055Z,23.90
2023-03-06T09:22:55.118Z,32.10
2023-03-06T09:25:31.884Z,22.17
2023-03-06T09:28:11.707Z,22.13
2023-03-06T09:30:43.378Z,24.23
2023-03-06T09:33:25.203Z,24.10
2023-03-06T09:35:55.957Z,19.40
2023-03-06T09:38:28.419Z,22.40
2023-03-06T09:41:25.549Z,23.93
2023-03-06T09:43:58.155Z,30.13
2023-03-06T09:46:33.207Z,26.07
2023-03-06T09:49:17.237Z,21.80
2023-03-06T09:52:00.830Z,36.67
2023-03-06T09:54:42.841Z,23.60
2023-03-06T09:57:22.732Z,27.57
2023-03-06T09:59:56.403Z,23.87
2023-03-06T10:02:35.614Z,22.40
2023-03-06T10:05:21.346Z,23.20
2023-03-06T10:07:57.052Z,25.43
2023-03-06T10:10:28.749Z,20.53
2023-03-06T10:13:07.894Z,22.77
2023-03-06T10:15:39.507Z,23.70
2023-03-06T10:18:09.567Z,24.20
2023-03-06T10:20:52.133Z,22.50
2023-03-06T10:23:44.894Z,21.70
2023-03-06T10:26:17.996Z,20.20
2023-03-06T10:28:58.955Z,23.30
2023-03-06T10:31:29.043Z,25.50
2023-03-06T10:34:00.527Z,28.27
2023-03-06T10:36:31.161Z,30.17
2023-03-06T10:39:01.504Z,40.93
2023-03-06T10:41:32.419Z,27.03
2023-03-06T10:44:24.871Z,38.27
2023-03-06T10:46:55.520Z,28.00
2023-03-06T10:49:36.860Z,25.67
2023-03-06T10:52:08.313Z,28.97
2023-03-06T10:54:39.292Z,33.37
2023-03-06T11:01:03.375Z,36.57
2023-03-06T11:03:36.576Z,33.57
2023-03-06T11:06:36.867Z,34.83
2023-03-06T11:09:33.549Z,36.87
2023-03-06T11:12:28.407Z,39.80
2023-03-06T11:15:24.476Z,35.40
2023-03-06T11:18:05.451Z,34.50
2023-03-06T11:20:51.550Z,31.03
2023-03-06T11:45:32.492Z,66.30
2023-03-06T11:53:24.404Z,20.47
